sensor_id;sensor_type;location;lat;lon;timestamp;P1;durP1;ratioP1;P2;durP2;ratioP2
49015;SDS011;34830;44.064;12.566;2023-02-26T00:01:02;15.55;;;6.50;;
49015;SDS011;34830;44.064;12.566;2023-02-26T00:03:36;10.10;;;5.68;;
49015;SDS011;34830;44.064;12.566;2023-02-26T00:06:02;13.90;;;6.15;;
49015;SDS011;34830;44.064;12.566;2023-02-26T00:08:28;14.75;;;5.95;;
49015;SDS011;34830;44.064;12.566;2023-02-26T00:10:56;16.65;;;6.30;;
49015;SDS011;34830;44.064;12.566;2023-02-26T00:13:22;14.20;;;6.38;;
49015;SDS011;34830;44.064;12.566;2023-02-26T00:15:49;10.60;;;5.88;;
49015;SDS011;34830;44.064;12.566;2023-02-26T00:18:16;15.10;;;7.10;;
49015;SDS011;34830;44.064;12.566;2023-02-26T00:20:43;11.63;;;5.90;;
49015;SDS011;34830;44.064;12.566;2023-02-26T00:23:12;17.48;;;6.47;;
49015;SDS011;34830;44.064;12.566;2023-02-26T00:25:42;17.08;;;6.00;;
49015;SDS011;34830;44.064;12.566;2023-02-26T00:28:08;11.32;;;5.68;;
49015;SDS011;34830;44.064;12.566;2023-02-26T00:30:34;16.00;;;6.20;;
49015;SDS011;34830;44.064;12.566;2023-02-26T00:33:02;14.77;;;6.25;;
49015;SDS011;34830;44.064;12.566;2023-02-26T00:35:30;11.82;;;5.22;;
49015;SDS011;34830;44.064;12.566;2023-02-26T00:43:02;15.75;;;6.22;;
49015;SDS011;34830;44.064;12.566;2023-02-26T00:45:29;13.13;;;5.90;;
49015;SDS011;34830;44.064;12.566;2023-02-26T00:51:01;12.38;;;5.70;;
49015;SDS011;34830;44.064;12.566;2023-02-26T00:53:33;9.85;;;5.28;;
49015;SDS011;34830;44.064;12.566;2023-02-26T00:56:02;13.20;;;6.38;;
49015;SDS011;34830;44.064;12.566;2023-02-26T00:58:28;16.10;;;6.40;;
49015;SDS011;34830;44.064;12.566;2023-02-26T01:00:54;14.70;;;6.15;;
49015;SDS011;34830;44.064;12.566;2023-02-26T01:03:20;14.25;;;4.35;;
49015;SDS011;34830;44.064;12.566;2023-02-26T01:05:47;11.23;;;5.85;;
49015;SDS011;34830;44.064;12.566;2023-02-26T01:10:39;20.50;;;7.00;;
49015;SDS011;34830;44.064;12.566;2023-02-26T01:13:06;18.98;;;7.78;;
49015;SDS011;34830;44.064;12.566;2023-02-26T01:15:33;14.13;;;7.28;;
49015;SDS011;34830;44.064;12.566;2023-02-26T01:18:13;13.10;;;7.22;;
49015;SDS011;34830;44.064;12.566;2023-02-26T01:20:47;23.58;;;9.27;;
49015;SDS011;34830;44.064;12.566;2023-02-26T01:23:22;19.35;;;9.93;;
49015;SDS011;34830;44.064;12.566;2023-02-26T01:25:51;25.20;;;11.95;;
49015;SDS011;34830;44.064;12.566;2023-02-26T01:28:19;25.85;;;12.18;;
49015;SDS011;34830;44.064;12.566;2023-02-26T01:30:46;36.95;;;13.27;;
49015;SDS011;34830;44.064;12.566;2023-02-26T01:35:55;26.05;;;12.35;;
49015;SDS011;34830;44.064;12.566;2023-02-26T01:38:49;28.17;;;12.63;;
49015;SDS011;34830;44.064;12.566;2023-02-26T01:41:24;27.38;;;13.43;;
49015;SDS011;34830;44.064;12.566;2023-02-26T01:49:26;34.08;;;14.75;;
49015;SDS011;34830;44.064;12.566;2023-02-26T01:52:02;30.42;;;15.02;;
49015;SDS011;34830;44.064;12.566;2023-02-26T01:54:34;30.10;;;14.40;;
49015;SDS011;34830;44.064;12.566;2023-02-26T01:59:31;29.95;;;14.23;;
49015;SDS011;34830;44.064;12.566;2023-02-26T02:01:57;32.50;;;14.38;;
49015;SDS011;34830;44.064;12.566;2023-02-26T02:04:24;28.85;;;15.02;;
49015;SDS011;34830;44.064;12.566;2023-02-26T02:06:52;31.45;;;15.48;;
49015;SDS011;34830;44.064;12.566;2023-02-26T02:09:19;35.42;;;16.92;;
49015;SDS011;34830;44.064;12.566;2023-02-26T02:11:48;34.53;;;15.82;;
49015;SDS011;34830;44.064;12.566;2023-02-26T02:14:24;38.03;;;19.50;;
49015;SDS011;34830;44.064;12.566;2023-02-26T02:17:01;52.08;;;21.73;;
49015;SDS011;34830;44.064;12.566;2023-02-26T02:33:32;65.85;;;33.15;;
49015;SDS011;34830;44.064;12.566;2023-02-26T02:36:09;66.47;;;34.38;;
49015;SDS011;34830;44.064;12.566;2023-02-26T02:38:44;70.10;;;35.10;;
49015;SDS011;34830;44.064;12.566;2023-02-26T02:41:28;73.28;;;35.13;;
49015;SDS011;34830;44.064;12.566;2023-02-26T02:44:01;74.03;;;36.22;;
49015;SDS011;34830;44.064;12.566;2023-02-26T02:56:41;74.85;;;35.65;;
49015;SDS011;34830;44.064;12.566;2023-02-26T02:59:14;83.55;;;36.80;;
49015;SDS011;34830;44.064;12.566;2023-02-26T03:01:50;77.25;;;36.88;;
49015;SDS011;34830;44.064;12.566;2023-02-26T03:04:36;83.13;;;37.15;;
49015;SDS011;34830;44.064;12.566;2023-02-26T03:07:03;88.45;;;38.10;;
49015;SDS011;34830;44.064;12.566;2023-02-26T03:09:29;72.97;;;33.42;;
49015;SDS011;34830;44.064;12.566;2023-02-26T03:11:55;78.10;;;33.88;;
49015;SDS011;34830;44.064;12.566;2023-02-26T03:14:21;91.93;;;36.80;;
49015;SDS011;34830;44.064;12.566;2023-02-26T03:16:51;77.93;;;33.75;;
49015;SDS011;34830;44.064;12.566;2023-02-26T03:22:14;74.05;;;28.02;;
49015;SDS011;34830;44.064;12.566;2023-02-26T03:25:01;29.70;;;7.00;;
49015;SDS011;34830;44.064;12.566;2023-02-26T03:30:29;26.17;;;2.88;;
49015;SDS011;34830;44.064;12.566;2023-02-26T03:33:02;25.25;;;3.38;;
49015;SDS011;34830;44.064;12.566;2023-02-26T03:35:37;24.75;;;3.63;;
49015;SDS011;34830;44.064;12.566;2023-02-26T03:38:09;31.42;;;3.53;;
49015;SDS011;34830;44.064;12.566;2023-02-26T03:40:40;39.13;;;4.50;;
49015;SDS011;34830;44.064;12.566;2023-02-26T03:43:19;30.27;;;3.80;;
49015;SDS011;34830;44.064;12.566;2023-02-26T03:45:50;32.17;;;4.45;;
49015;SDS011;34830;44.064;12.566;2023-02-26T03:48:20;36.72;;;4.45;;
49015;SDS011;34830;44.064;12.566;2023-02-26T03:50:50;32.60;;;3.53;;
49015;SDS011;34830;44.064;12.566;2023-02-26T03:53:38;41.20;;;5.13;;
49015;SDS011;34830;44.064;12.566;2023-02-26T03:56:30;30.45;;;5.18;;
49015;SDS011;34830;44.064;12.566;2023-02-26T03:59:18;33.95;;;4.10;;
49015;SDS011;34830;44.064;12.566;2023-02-26T04:04:48;35.15;;;4.68;;
49015;SDS011;34830;44.064;12.566;2023-02-26T04:07:18;31.73;;;4.13;;
49015;SDS011;34830;44.064;12.566;2023-02-26T04:09:46;38.95;;;5.05;;
49015;SDS011;34830;44.064;12.566;2023-02-26T04:12:13;55.90;;;6.45;;
49015;SDS011;34830;44.064;12.566;2023-02-26T04:14:44;43.55;;;6.45;;
49015;SDS011;34830;44.064;12.566;2023-02-26T04:17:10;37.13;;;4.63;;
49015;SDS011;34830;44.064;12.566;2023-02-26T04:19:36;43.47;;;4.90;;
49015;SDS011;34830;44.064;12.566;2023-02-26T04:22:02;38.70;;;5.95;;
49015;SDS011;34830;44.064;12.566;2023-02-26T04:24:29;36.33;;;4.50;;
49015;SDS011;34830;44.064;12.566;2023-02-26T04:26:58;33.58;;;4.18;;
49015;SDS011;34830;44.064;12.566;2023-02-26T04:29:25;33.33;;;3.80;;
49015;SDS011;34830;44.064;12.566;2023-02-26T04:31:52;40.45;;;5.30;;
49015;SDS011;34830;44.064;12.566;2023-02-26T04:34:19;41.25;;;6.32;;
49015;SDS011;34830;44.064;12.566;2023-02-26T04:36:45;32.53;;;4.70;;
49015;SDS011;34830;44.064;12.566;2023-02-26T04:39:11;47.92;;;5.35;;
49015;SDS011;34830;44.064;12.566;2023-02-26T04:41:37;34.08;;;4.75;;
49015;SDS011;34830;44.064;12.566;2023-02-26T04:44:04;45.03;;;5.65;;
49015;SDS011;34830;44.064;12.566;2023-02-26T04:46:31;41.95;;;5.70;;
49015;SDS011;34830;44.064;12.566;2023-02-26T04:48:58;58.35;;;6.68;;
49015;SDS011;34830;44.064;12.566;2023-02-26T04:51:24;44.28;;;4.97;;
49015;SDS011;34830;44.064;12.566;2023-02-26T04:53:51;43.20;;;5.38;;
49015;SDS011;34830;44.064;12.566;2023-02-26T04:56:18;43.45;;;6.65;;
49015;SDS011;34830;44.064;12.566;2023-02-26T04:58:45;53.00;;;7.30;;
49015;SDS011;34830;44.064;12.566;2023-02-26T05:01:16;44.17;;;5.82;;
49015;SDS011;34830;44.064;12.566;2023-02-26T05:03:42;36.30;;;5.30;;
49015;SDS011;34830;44.064;12.566;2023-02-26T05:06:09;54.05;;;6.20;;
49015;SDS011;34830;44.064;12.566;2023-02-26T05:08:35;42.17;;;5.13;;
49015;SDS011;34830;44.064;12.566;2023-02-26T05:11:06;52.33;;;5.15;;
49015;SDS011;34830;44.064;12.566;2023-02-26T05:13:32;44.83;;;5.72;;
49015;SDS011;34830;44.064;12.566;2023-02-26T05:15:58;45.88;;;7.00;;
49015;SDS011;34830;44.064;12.566;2023-02-26T05:18:24;34.53;;;5.25;;
49015;SDS011;34830;44.064;12.566;2023-02-26T05:20:51;44.30;;;6.32;;
49015;SDS011;34830;44.064;12.566;2023-02-26T05:23:18;49.83;;;6.03;;
49015;SDS011;34830;44.064;12.566;2023-02-26T05:25:45;49.95;;;6.88;;
49015;SDS011;34830;44.064;12.566;2023-02-26T05:28:11;52.65;;;6.13;;
49015;SDS011;34830;44.064;12.566;2023-02-26T05:30:38;49.10;;;7.07;;
49015;SDS011;34830;44.064;12.566;2023-02-26T05:33:05;63.20;;;8.40;;
49015;SDS011;34830;44.064;12.566;2023-02-26T05:35:31;56.63;;;7.10;;
49015;SDS011;34830;44.064;12.566;2023-02-26T05:37:57;53.40;;;8.73;;
49015;SDS011;34830;44.064;12.566;2023-02-26T05:40:24;62.50;;;6.63;;
49015;SDS011;34830;44.064;12.566;2023-02-26T05:42:50;65.82;;;8.27;;
49015;SDS011;34830;44.064;12.566;2023-02-26T05:45:16;49.97;;;7.30;;
49015;SDS011;34830;44.064;12.566;2023-02-26T05:47:43;47.92;;;5.38;;
49015;SDS011;34830;44.064;12.566;2023-02-26T05:50:09;57.17;;;6.60;;
49015;SDS011;34830;44.064;12.566;2023-02-26T05:52:36;53.80;;;6.20;;
49015;SDS011;34830;44.064;12.566;2023-02-26T05:55:02;46.15;;;7.43;;
49015;SDS011;34830;44.064;12.566;2023-02-26T05:57:29;50.45;;;7.60;;
49015;SDS011;34830;44.064;12.566;2023-02-26T05:59:55;44.80;;;6.47;;
49015;SDS011;34830;44.064;12.566;2023-02-26T06:02:21;65.82;;;8.40;;
49015;SDS011;34830;44.064;12.566;2023-02-26T06:04:47;55.15;;;6.05;;
49015;SDS011;34830;44.064;12.566;2023-02-26T06:07:13;56.95;;;7.38;;
49015;SDS011;34830;44.064;12.566;2023-02-26T06:09:39;68.78;;;8.23;;
49015;SDS011;34830;44.064;12.566;2023-02-26T06:12:05;56.10;;;7.57;;
49015;SDS011;34830;44.064;12.566;2023-02-26T06:14:32;59.80;;;7.90;;
49015;SDS011;34830;44.064;12.566;2023-02-26T06:16:59;83.50;;;11.20;;
49015;SDS011;34830;44.064;12.566;2023-02-26T06:19:25;73.20;;;7.00;;
49015;SDS011;34830;44.064;12.566;2023-02-26T06:21:51;46.40;;;6.57;;
49015;SDS011;34830;44.064;12.566;2023-02-26T06:24:17;50.90;;;6.18;;
49015;SDS011;34830;44.064;12.566;2023-02-26T06:26:43;51.58;;;6.35;;
49015;SDS011;34830;44.064;12.566;2023-02-26T06:29:09;58.78;;;11.35;;
49015;SDS011;34830;44.064;12.566;2023-02-26T06:31:35;49.92;;;6.68;;
49015;SDS011;34830;44.064;12.566;2023-02-26T06:34:01;46.85;;;5.63;;
49015;SDS011;34830;44.064;12.566;2023-02-26T06:36:28;52.20;;;6.88;;
49015;SDS011;34830;44.064;12.566;2023-02-26T06:38:54;58.45;;;7.85;;
49015;SDS011;34830;44.064;12.566;2023-02-26T06:41:20;49.42;;;6.80;;
49015;SDS011;34830;44.064;12.566;2023-02-26T06:43:46;60.20;;;6.38;;
49015;SDS011;34830;44.064;12.566;2023-02-26T06:46:12;35.28;;;6.25;;
49015;SDS011;34830;44.064;12.566;2023-02-26T06:48:38;43.53;;;5.53;;
49015;SDS011;34830;44.064;12.566;2023-02-26T06:51:04;60.67;;;6.90;;
49015;SDS011;34830;44.064;12.566;2023-02-26T06:53:30;54.65;;;6.70;;
49015;SDS011;34830;44.064;12.566;2023-02-26T06:55:56;54.58;;;6.80;;
49015;SDS011;34830;44.064;12.566;2023-02-26T06:58:22;54.65;;;6.85;;
49015;SDS011;34830;44.064;12.566;2023-02-26T07:00:48;59.58;;;5.30;;
49015;SDS011;34830;44.064;12.566;2023-02-26T07:03:15;50.03;;;7.53;;
49015;SDS011;34830;44.064;12.566;2023-02-26T07:05:43;53.33;;;7.60;;
49015;SDS011;34830;44.064;12.566;2023-02-26T07:08:09;65.70;;;8.88;;
49015;SDS011;34830;44.064;12.566;2023-02-26T07:10:36;61.65;;;8.13;;
49015;SDS011;34830;44.064;12.566;2023-02-26T07:13:02;41.70;;;5.07;;
49015;SDS011;34830;44.064;12.566;2023-02-26T07:15:29;60.72;;;9.27;;
49015;SDS011;34830;44.064;12.566;2023-02-26T07:17:55;41.80;;;6.75;;
49015;SDS011;34830;44.064;12.566;2023-02-26T07:20:22;59.17;;;8.48;;
49015;SDS011;34830;44.064;12.566;2023-02-26T07:22:48;60.10;;;8.68;;
49015;SDS011;34830;44.064;12.566;2023-02-26T07:25:14;46.53;;;7.72;;
49015;SDS011;34830;44.064;12.566;2023-02-26T07:27:40;36.05;;;5.25;;
49015;SDS011;34830;44.064;12.566;2023-02-26T07:30:06;48.25;;;6.72;;
49015;SDS011;34830;44.064;12.566;2023-02-26T07:32:33;33.85;;;5.53;;
49015;SDS011;34830;44.064;12.566;2023-02-26T07:34:59;47.30;;;6.78;;
49015;SDS011;34830;44.064;12.566;2023-02-26T07:37:25;48.08;;;5.85;;
49015;SDS011;34830;44.064;12.566;2023-02-26T07:39:51;47.53;;;5.97;;
49015;SDS011;34830;44.064;12.566;2023-02-26T07:42:17;52.92;;;6.25;;
49015;SDS011;34830;44.064;12.566;2023-02-26T07:44:43;51.67;;;6.03;;
49015;SDS011;34830;44.064;12.566;2023-02-26T07:47:09;36.22;;;6.57;;
49015;SDS011;34830;44.064;12.566;2023-02-26T07:49:36;48.72;;;7.18;;
49015;SDS011;34830;44.064;12.566;2023-02-26T07:52:02;45.58;;;5.82;;
49015;SDS011;34830;44.064;12.566;2023-02-26T07:54:28;47.00;;;6.55;;
49015;SDS011;34830;44.064;12.566;2023-02-26T07:56:55;49.35;;;7.28;;
49015;SDS011;34830;44.064;12.566;2023-02-26T07:59:21;50.67;;;6.82;;
49015;SDS011;34830;44.064;12.566;2023-02-26T08:01:47;34.75;;;6.78;;
49015;SDS011;34830;44.064;12.566;2023-02-26T08:04:13;52.25;;;5.82;;
49015;SDS011;34830;44.064;12.566;2023-02-26T08:06:39;48.50;;;5.00;;
49015;SDS011;34830;44.064;12.566;2023-02-26T08:09:05;36.70;;;4.80;;
49015;SDS011;34830;44.064;12.566;2023-02-26T08:11:31;44.13;;;6.75;;
49015;SDS011;34830;44.064;12.566;2023-02-26T08:14:00;48.65;;;6.53;;
49015;SDS011;34830;44.064;12.566;2023-02-26T08:16:26;56.50;;;11.15;;
49015;SDS011;34830;44.064;12.566;2023-02-26T08:18:52;64.20;;;9.45;;
49015;SDS011;34830;44.064;12.566;2023-02-26T08:21:18;46.97;;;5.80;;
49015;SDS011;34830;44.064;12.566;2023-02-26T08:23:44;50.90;;;6.70;;
49015;SDS011;34830;44.064;12.566;2023-02-26T08:26:10;40.58;;;5.80;;
49015;SDS011;34830;44.064;12.566;2023-02-26T08:28:38;44.25;;;5.45;;
49015;SDS011;34830;44.064;12.566;2023-02-26T08:31:04;60.17;;;7.18;;
49015;SDS011;34830;44.064;12.566;2023-02-26T08:33:31;53.10;;;6.45;;
49015;SDS011;34830;44.064;12.566;2023-02-26T08:35:57;70.50;;;8.73;;
49015;SDS011;34830;44.064;12.566;2023-02-26T08:38:27;56.00;;;7.95;;
49015;SDS011;34830;44.064;12.566;2023-02-26T08:40:53;59.10;;;8.07;;
49015;SDS011;34830;44.064;12.566;2023-02-26T08:43:19;67.03;;;8.43;;
49015;SDS011;34830;44.064;12.566;2023-02-26T08:45:46;75.15;;;9.75;;
49015;SDS011;34830;44.064;12.566;2023-02-26T08:48:12;65.07;;;7.63;;
49015;SDS011;34830;44.064;12.566;2023-02-26T08:50:39;62.80;;;9.27;;
49015;SDS011;34830;44.064;12.566;2023-02-26T08:53:05;58.80;;;7.20;;
49015;SDS011;34830;44.064;12.566;2023-02-26T08:55:31;55.97;;;7.10;;
49015;SDS011;34830;44.064;12.566;2023-02-26T08:57:58;44.35;;;5.32;;
49015;SDS011;34830;44.064;12.566;2023-02-26T09:00:24;47.55;;;6.93;;
49015;SDS011;34830;44.064;12.566;2023-02-26T09:02:50;34.13;;;5.30;;
49015;SDS011;34830;44.064;12.566;2023-02-26T09:05:16;52.22;;;7.38;;
49015;SDS011;34830;44.064;12.566;2023-02-26T09:07:43;49.65;;;5.32;;
49015;SDS011;34830;44.064;12.566;2023-02-26T09:10:12;49.67;;;5.20;;
49015;SDS011;34830;44.064;12.566;2023-02-26T09:12:39;37.20;;;5.25;;
49015;SDS011;34830;44.064;12.566;2023-02-26T09:15:06;45.50;;;5.25;;
49015;SDS011;34830;44.064;12.566;2023-02-26T09:17:34;46.63;;;6.60;;
49015;SDS011;34830;44.064;12.566;2023-02-26T09:20:00;44.33;;;5.50;;
49015;SDS011;34830;44.064;12.566;2023-02-26T09:22:26;41.17;;;5.47;;
49015;SDS011;34830;44.064;12.566;2023-02-26T09:24:52;40.65;;;4.65;;
49015;SDS011;34830;44.064;12.566;2023-02-26T09:27:18;37.25;;;6.30;;
49015;SDS011;34830;44.064;12.566;2023-02-26T09:29:45;35.83;;;4.82;;
49015;SDS011;34830;44.064;12.566;2023-02-26T09:32:11;39.78;;;5.13;;
49015;SDS011;34830;44.064;12.566;2023-02-26T09:34:37;43.80;;;6.63;;
49015;SDS011;34830;44.064;12.566;2023-02-26T09:37:04;29.67;;;3.95;;
49015;SDS011;34830;44.064;12.566;2023-02-26T09:39:31;32.45;;;5.28;;
49015;SDS011;34830;44.064;12.566;2023-02-26T09:41:58;35.30;;;5.75;;
49015;SDS011;34830;44.064;12.566;2023-02-26T09:44:27;38.47;;;6.45;;
49015;SDS011;34830;44.064;12.566;2023-02-26T09:52:21;43.05;;;6.03;;
49015;SDS011;34830;44.064;12.566;2023-02-26T09:55:11;35.72;;;5.90;;
49015;SDS011;34830;44.064;12.566;2023-02-26T09:57:41;47.03;;;7.35;;
49015;SDS011;34830;44.064;12.566;2023-02-26T10:08:45;40.63;;;5.18;;
49015;SDS011;34830;44.064;12.566;2023-02-26T10:11:20;44.78;;;6.32;;
49015;SDS011;34830;44.064;12.566;2023-02-26T10:13:52;44.72;;;7.60;;
49015;SDS011;34830;44.064;12.566;2023-02-26T10:16:26;30.83;;;3.97;;
49015;SDS011;34830;44.064;12.566;2023-02-26T10:18:57;30.25;;;4.47;;
49015;SDS011;34830;44.064;12.566;2023-02-26T10:24:03;33.97;;;5.00;;
49015;SDS011;34830;44.064;12.566;2023-02-26T10:26:44;40.15;;;5.30;;
49015;SDS011;34830;44.064;12.566;2023-02-26T10:34:51;33.60;;;4.93;;
49015;SDS011;34830;44.064;12.566;2023-02-26T10:42:40;59.13;;;6.70;;
49015;SDS011;34830;44.064;12.566;2023-02-26T10:50:31;44.05;;;5.70;;
49015;SDS011;34830;44.064;12.566;2023-02-26T10:52:57;42.60;;;6.10;;
49015;SDS011;34830;44.064;12.566;2023-02-26T11:00:31;44.47;;;5.10;;
49015;SDS011;34830;44.064;12.566;2023-02-26T11:02:59;35.60;;;6.22;;
49015;SDS011;34830;44.064;12.566;2023-02-26T11:05:28;38.25;;;5.15;;
49015;SDS011;34830;44.064;12.566;2023-02-26T11:08:17;38.47;;;5.40;;
49015;SDS011;34830;44.064;12.566;2023-02-26T11:10:52;35.22;;;5.53;;
49015;SDS011;34830;44.064;12.566;2023-02-26T11:13:21;24.05;;;4.63;;
49015;SDS011;34830;44.064;12.566;2023-02-26T11:15:50;38.90;;;5.75;;
49015;SDS011;34830;44.064;12.566;2023-02-26T11:18:41;37.38;;;6.47;;
49015;SDS011;34830;44.064;12.566;2023-02-26T11:21:16;52.08;;;5.32;;
49015;SDS011;34830;44.064;12.566;2023-02-26T11:23:44;32.35;;;6.38;;
49015;SDS011;34830;44.064;12.566;2023-02-26T11:26:15;26.35;;;4.85;;
49015;SDS011;34830;44.064;12.566;2023-02-26T11:28:46;30.48;;;4.85;;
49015;SDS011;34830;44.064;12.566;2023-02-26T11:31:18;23.00;;;3.10;;
49015;SDS011;34830;44.064;12.566;2023-02-26T11:33:51;25.23;;;4.18;;
49015;SDS011;34830;44.064;12.566;2023-02-26T11:36:21;32.60;;;4.55;;
49015;SDS011;34830;44.064;12.566;2023-02-26T11:39:00;51.20;;;5.47;;
49015;SDS011;34830;44.064;12.566;2023-02-26T11:41:28;35.65;;;5.07;;
49015;SDS011;34830;44.064;12.566;2023-02-26T11:43:58;90.75;;;9.57;;
49015;SDS011;34830;44.064;12.566;2023-02-26T11:46:26;35.50;;;5.32;;
49015;SDS011;34830;44.064;12.566;2023-02-26T11:48:54;44.78;;;7.43;;
49015;SDS011;34830;44.064;12.566;2023-02-26T11:51:26;35.70;;;5.18;;
49015;SDS011;34830;44.064;12.566;2023-02-26T11:53:55;34.17;;;5.63;;
49015;SDS011;34830;44.064;12.566;2023-02-26T11:56:36;42.67;;;5.82;;
49015;SDS011;34830;44.064;12.566;2023-02-26T11:59:06;34.67;;;5.38;;
49015;SDS011;34830;44.064;12.566;2023-02-26T12:01:53;37.78;;;4.30;;
49015;SDS011;34830;44.064;12.566;2023-02-26T12:04:20;32.38;;;3.95;;
49015;SDS011;34830;44.064;12.566;2023-02-26T12:06:48;41.40;;;5.53;;
49015;SDS011;34830;44.064;12.566;2023-02-26T12:09:16;34.08;;;5.15;;
49015;SDS011;34830;44.064;12.566;2023-02-26T12:14:37;35.60;;;4.63;;
49015;SDS011;34830;44.064;12.566;2023-02-26T12:19:53;29.63;;;6.28;;
49015;SDS011;34830;44.064;12.566;2023-02-26T12:35:46;34.90;;;5.03;;
49015;SDS011;34830;44.064;12.566;2023-02-26T12:38:24;43.28;;;5.70;;
49015;SDS011;34830;44.064;12.566;2023-02-26T12:41:09;19.95;;;3.63;;
49015;SDS011;34830;44.064;12.566;2023-02-26T12:43:46;32.65;;;5.18;;
49015;SDS011;34830;44.064;12.566;2023-02-26T12:46:31;27.15;;;4.47;;
49015;SDS011;34830;44.064;12.566;2023-02-26T13:03:22;21.45;;;3.67;;
49015;SDS011;34830;44.064;12.566;2023-02-26T13:06:08;27.50;;;4.93;;
49015;SDS011;34830;44.064;12.566;2023-02-26T13:27:30;44.45;;;6.70;;
49015;SDS011;34830;44.064;12.566;2023-02-26T13:32:43;23.00;;;5.40;;
49015;SDS011;34830;44.064;12.566;2023-02-26T13:35:27;22.83;;;4.18;;
49015;SDS011;34830;44.064;12.566;2023-02-26T13:37:58;27.05;;;4.93;;
49015;SDS011;34830;44.064;12.566;2023-02-26T13:40:39;36.13;;;5.07;;
49015;SDS011;34830;44.064;12.566;2023-02-26T13:43:12;22.85;;;4.93;;
49015;SDS011;34830;44.064;12.566;2023-02-26T13:53:52;27.45;;;3.83;;
49015;SDS011;34830;44.064;12.566;2023-02-26T13:56:51;32.70;;;5.40;;
49015;SDS011;34830;44.064;12.566;2023-02-26T14:02:02;16.45;;;3.42;;
49015;SDS011;34830;44.064;12.566;2023-02-26T14:04:50;17.95;;;3.22;;
49015;SDS011;34830;44.064;12.566;2023-02-26T14:07:44;34.72;;;5.00;;
49015;SDS011;34830;44.064;12.566;2023-02-26T14:10:16;23.35;;;3.72;;
49015;SDS011;34830;44.064;12.566;2023-02-26T14:13:01;27.38;;;5.45;;
49015;SDS011;34830;44.064;12.566;2023-02-26T14:15:39;23.02;;;3.70;;
49015;SDS011;34830;44.064;12.566;2023-02-26T14:20:51;29.25;;;5.85;;
49015;SDS011;34830;44.064;12.566;2023-02-26T14:23:30;18.15;;;4.15;;
49015;SDS011;34830;44.064;12.566;2023-02-26T14:26:05;29.92;;;5.00;;
49015;SDS011;34830;44.064;12.566;2023-02-26T14:28:40;21.70;;;4.35;;
49015;SDS011;34830;44.064;12.566;2023-02-26T14:31:12;27.83;;;4.68;;
49015;SDS011;34830;44.064;12.566;2023-02-26T14:36:42;16.90;;;3.15;;
49015;SDS011;34830;44.064;12.566;2023-02-26T14:39:22;24.13;;;3.45;;
49015;SDS011;34830;44.064;12.566;2023-02-26T14:42:03;27.02;;;4.30;;
49015;SDS011;34830;44.064;12.566;2023-02-26T14:44:50;30.13;;;5.30;;
49015;SDS011;34830;44.064;12.566;2023-02-26T14:47:19;29.00;;;4.60;;
49015;SDS011;34830;44.064;12.566;2023-02-26T14:49:46;31.75;;;6.10;;
49015;SDS011;34830;44.064;12.566;2023-02-26T15:05:54;18.30;;;4.50;;
49015;SDS011;34830;44.064;12.566;2023-02-26T15:11:22;15.82;;;3.58;;
49015;SDS011;34830;44.064;12.566;2023-02-26T15:22:12;20.38;;;4.70;;
49015;SDS011;34830;44.064;12.566;2023-02-26T15:24:53;16.15;;;3.22;;
49015;SDS011;34830;44.064;12.566;2023-02-26T15:27:20;22.08;;;4.40;;
49015;SDS011;34830;44.064;12.566;2023-02-26T15:29:47;20.13;;;5.10;;
49015;SDS011;34830;44.064;12.566;2023-02-26T15:34:54;22.63;;;4.85;;
49015;SDS011;34830;44.064;12.566;2023-02-26T15:37:35;22.90;;;3.55;;
49015;SDS011;34830;44.064;12.566;2023-02-26T15:40:04;20.92;;;3.40;;
49015;SDS011;34830;44.064;12.566;2023-02-26T15:42:35;34.30;;;4.15;;
49015;SDS011;34830;44.064;12.566;2023-02-26T15:45:05;27.92;;;3.53;;
49015;SDS011;34830;44.064;12.566;2023-02-26T15:47:57;26.85;;;3.53;;
49015;SDS011;34830;44.064;12.566;2023-02-26T15:50:30;10.60;;;2.80;;
49015;SDS011;34830;44.064;12.566;2023-02-26T15:53:02;26.13;;;3.53;;
49015;SDS011;34830;44.064;12.566;2023-02-26T15:55:31;33.38;;;5.15;;
49015;SDS011;34830;44.064;12.566;2023-02-26T15:57:59;20.52;;;4.22;;
49015;SDS011;34830;44.064;12.566;2023-02-26T16:00:26;25.80;;;4.43;;
49015;SDS011;34830;44.064;12.566;2023-02-26T16:02:53;28.77;;;4.70;;
49015;SDS011;34830;44.064;12.566;2023-02-26T16:05:22;25.80;;;5.07;;
49015;SDS011;34830;44.064;12.566;2023-02-26T16:07:50;27.65;;;5.85;;
49015;SDS011;34830;44.064;12.566;2023-02-26T16:11:02;32.83;;;4.05;;
49015;SDS011;34830;44.064;12.566;2023-02-26T16:13:06;21.58;;;4.30;;
49015;SDS011;34830;44.064;12.566;2023-02-26T16:15:35;25.20;;;4.28;;
49015;SDS011;34830;44.064;12.566;2023-02-26T16:18:04;19.35;;;3.53;;
49015;SDS011;34830;44.064;12.566;2023-02-26T16:20:35;27.58;;;3.53;;
49015;SDS011;34830;44.064;12.566;2023-02-26T16:23:05;18.17;;;3.58;;
49015;SDS011;34830;44.064;12.566;2023-02-26T16:25:36;31.15;;;4.07;;
49015;SDS011;34830;44.064;12.566;2023-02-26T16:28:13;30.48;;;4.90;;
49015;SDS011;34830;44.064;12.566;2023-02-26T16:30:41;26.15;;;4.78;;
49015;SDS011;34830;44.064;12.566;2023-02-26T16:33:11;24.52;;;3.60;;
49015;SDS011;34830;44.064;12.566;2023-02-26T16:35:42;30.52;;;6.90;;
49015;SDS011;34830;44.064;12.566;2023-02-26T16:38:20;24.88;;;4.28;;
49015;SDS011;34830;44.064;12.566;2023-02-26T16:45:49;22.90;;;4.32;;
49015;SDS011;34830;44.064;12.566;2023-02-26T16:48:25;27.42;;;5.43;;
49015;SDS011;34830;44.064;12.566;2023-02-26T16:50:56;28.08;;;4.95;;
49015;SDS011;34830;44.064;12.566;2023-02-26T16:53:35;37.88;;;6.40;;
49015;SDS011;34830;44.064;12.566;2023-02-26T16:56:03;20.92;;;3.58;;
49015;SDS011;34830;44.064;12.566;2023-02-26T16:58:29;24.27;;;3.45;;
49015;SDS011;34830;44.064;12.566;2023-02-26T17:01:04;21.40;;;4.97;;
49015;SDS011;34830;44.064;12.566;2023-02-26T17:03:33;23.90;;;4.25;;
49015;SDS011;34830;44.064;12.566;2023-02-26T17:06:10;20.65;;;4.75;;
49015;SDS011;34830;44.064;12.566;2023-02-26T17:08:47;18.40;;;3.50;;
49015;SDS011;34830;44.064;12.566;2023-02-26T17:14:30;36.85;;;7.25;;
49015;SDS011;34830;44.064;12.566;2023-02-26T17:16:51;28.00;;;5.68;;
49015;SDS011;34830;44.064;12.566;2023-02-26T17:19:18;23.17;;;6.18;;
49015;SDS011;34830;44.064;12.566;2023-02-26T17:21:48;31.63;;;4.72;;
49015;SDS011;34830;44.064;12.566;2023-02-26T17:24:22;26.95;;;4.20;;
49015;SDS011;34830;44.064;12.566;2023-02-26T17:26:50;36.70;;;7.07;;
49015;SDS011;34830;44.064;12.566;2023-02-26T17:29:21;30.67;;;5.93;;
49015;SDS011;34830;44.064;12.566;2023-02-26T17:31:58;28.17;;;5.50;;
49015;SDS011;34830;44.064;12.566;2023-02-26T17:34:24;16.58;;;3.78;;
49015;SDS011;34830;44.064;12.566;2023-02-26T17:36:50;27.50;;;7.07;;
49015;SDS011;34830;44.064;12.566;2023-02-26T17:39:16;26.73;;;5.60;;
49015;SDS011;34830;44.064;12.566;2023-02-26T17:41:43;33.90;;;4.70;;
49015;SDS011;34830;44.064;12.566;2023-02-26T17:44:10;26.70;;;4.20;;
49015;SDS011;34830;44.064;12.566;2023-02-26T17:46:36;28.02;;;6.15;;
49015;SDS011;34830;44.064;12.566;2023-02-26T17:49:03;29.38;;;5.68;;
49015;SDS011;34830;44.064;12.566;2023-02-26T17:51:29;36.50;;;6.72;;
49015;SDS011;34830;44.064;12.566;2023-02-26T17:53:55;27.85;;;3.85;;
49015;SDS011;34830;44.064;12.566;2023-02-26T17:56:25;20.55;;;3.60;;